createdAt,value
2017-07-24T00:00:58.925Z,19.30
2017-07-24T00:03:26.698Z,19.30
2017-07-24T00:05:53.972Z,19.30
2017-07-24T00:08:20.277Z,19.30
2017-07-24T00:10:46.552Z,19.30
2017-07-24T00:13:13.570Z,19.30
2017-07-24T00:15:40.357Z,19.20
2017-07-24T00:18:06.616Z,19.20
2017-07-24T00:20:33.883Z,19.20
2017-07-24T00:23:01.132Z,19.20
2017-07-24T00:25:27.444Z,19.10
2017-07-24T00:27:54.808Z,19.00
2017-07-24T00:30:21.352Z,19.00
2017-07-24T00:32:48.641Z,19.00
2017-07-24T00:35:15.643Z,19.00
2017-07-24T00:37:42.801Z,19.00
2017-07-24T00:40:09.127Z,19.00
2017-07-24T00:42:36.066Z,19.00
2017-07-24T00:45:03.340Z,19.00
2017-07-24T00:47:29.627Z,19.00
2017-07-24T00:49:55.878Z,19.00
2017-07-24T00:52:22.226Z,19.00
2017-07-24T00:54:49.245Z,18.90
2017-07-24T00:57:16.854Z,18.90
2017-07-24T00:59:43.928Z,18.90
2017-07-24T01:02:10.208Z,18.90
2017-07-24T01:04:37.059Z,18.80
2017-07-24T01:07:03.885Z,18.70
2017-07-24T01:09:30.803Z,18.70
2017-07-24T01:11:57.398Z,18.70
2017-07-24T01:14:23.651Z,18.70
2017-07-24T01:16:49.927Z,18.70
2017-07-24T01:19:16.752Z,18.70
2017-07-24T01:21:43.050Z,18.70
2017-07-24T01:24:09.665Z,18.70
2017-07-24T01:26:37.555Z,18.70
2017-07-24T01:29:03.821Z,18.60
2017-07-24T01:31:30.183Z,18.60
2017-07-24T01:33:57.263Z,18.60
2017-07-24T01:36:24.357Z,18.50
2017-07-24T01:38:52.141Z,18.50
2017-07-24T01:41:18.396Z,18.40
2017-07-24T01:43:44.736Z,18.40
2017-07-24T01:46:11.033Z,18.50
2017-07-24T01:48:37.499Z,18.50
2017-07-24T01:51:04.603Z,18.50
2017-07-24T01:53:30.878Z,18.50
2017-07-24T01:55:58.363Z,18.40
2017-07-24T01:58:24.668Z,18.40
2017-07-24T02:00:50.969Z,18.40
2017-07-24T02:03:18.138Z,18.40
2017-07-24T02:05:45.056Z,18.40
2017-07-24T02:08:12.327Z,18.40
2017-07-24T02:10:40.854Z,18.40
2017-07-24T02:13:07.153Z,18.40
2017-07-24T02:15:33.409Z,18.40
2017-07-24T02:17:59.692Z,18.40
2017-07-24T02:20:26.875Z,18.40
2017-07-24T02:22:54.853Z,18.50
2017-07-24T02:25:21.147Z,18.40
2017-07-24T02:27:48.371Z,18.40
2017-07-24T02:30:14.675Z,18.50
2017-07-24T02:32:40.911Z,18.50
2017-07-24T02:35:07.716Z,18.40
2017-07-24T02:37:33.982Z,18.40
2017-07-24T02:40:00.254Z,18.40
2017-07-24T02:42:26.529Z,18.40
2017-07-24T02:44:54.157Z,18.40
2017-07-24T02:47:20.446Z,18.30
2017-07-24T02:49:46.687Z,18.30
2017-07-24T02:52:14.317Z,18.30
2017-07-24T02:54:40.574Z,18.30
2017-07-24T02:57:08.196Z,18.30
2017-07-24T02:59:34.654Z,18.30
2017-07-24T03:02:00.947Z,18.30
2017-07-24T03:04:27.214Z,18.30
2017-07-24T03:06:55.252Z,18.30
2017-07-24T03:09:21.510Z,18.30
2017-07-24T03:11:48.778Z,18.20
2017-07-24T03:14:15.231Z,18.20
2017-07-24T03:16:41.494Z,18.10
2017-07-24T03:19:07.764Z,18.10
2017-07-24T03:21:34.698Z,18.20
2017-07-24T03:24:01.480Z,18.20
2017-07-24T03:26:28.445Z,18.20
2017-07-24T03:28:54.711Z,18.20
2017-07-24T03:31:21.021Z,18.10
2017-07-24T03:33:47.897Z,17.90
2017-07-24T03:36:15.927Z,18.00
2017-07-24T03:38:42.239Z,18.00
2017-07-24T03:41:08.499Z,18.00
2017-07-24T03:43:34.888Z,18.00
2017-07-24T03:46:01.127Z,18.00
2017-07-24T03:48:27.988Z,18.00
2017-07-24T03:50:56.100Z,18.10
2017-07-24T03:53:22.531Z,18.10
2017-07-24T03:55:49.565Z,18.10
2017-07-24T03:58:16.425Z,18.10
2017-07-24T04:00:43.976Z,18.10
2017-07-24T04:03:10.277Z,18.10
2017-07-24T04:05:37.202Z,18.10
2017-07-24T04:08:03.455Z,18.20
2017-07-24T04:10:30.447Z,18.10
2017-07-24T04:12:59.774Z,18.10
2017-07-24T04:15:26.606Z,18.10
2017-07-24T04:17:53.019Z,18.10
2017-07-24T04:20:19.941Z,18.20
2017-07-24T04:22:47.449Z,18.10
2017-07-24T04:25:14.801Z,18.20
2017-07-24T04:27:42.144Z,18.20
2017-07-24T04:30:09.112Z,18.30
2017-07-24T04:32:36.102Z,18.30
2017-07-24T04:35:02.393Z,18.10
2017-07-24T04:37:28.664Z,18.00
2017-07-24T04:39:56.204Z,18.00
2017-07-24T04:42:22.513Z,18.00
2017-07-24T04:44:48.793Z,17.80
2017-07-24T04:47:15.556Z,17.70
2017-07-24T04:49:41.832Z,17.70
2017-07-24T04:52:08.100Z,17.70
2017-07-24T04:54:35.096Z,17.90
2017-07-24T04:57:01.534Z,17.90
2017-07-24T04:59:28.369Z,18.00
2017-07-24T05:01:54.638Z,18.00
2017-07-24T05:04:20.873Z,17.90
2017-07-24T05:06:48.045Z,18.00
2017-07-24T05:09:14.396Z,18.10
2017-07-24T05:11:40.997Z,18.10
2017-07-24T05:14:07.372Z,18.10
2017-07-24T05:16:33.606Z,17.90
2017-07-24T05:18:59.856Z,17.80
2017-07-24T05:21:26.942Z,17.80
2017-07-24T05:23:53.513Z,17.70
2017-07-24T05:26:21.011Z,17.70
2017-07-24T05:28:47.483Z,17.60
2017-07-24T05:31:13.810Z,17.50
2017-07-24T05:33:40.154Z,17.60
2017-07-24T05:36:06.654Z,17.70
2017-07-24T05:38:32.930Z,17.80
2017-07-24T05:40:59.455Z,17.80
2017-07-24T05:43:25.690Z,17.90
2017-07-24T05:45:52.972Z,18.00
2017-07-24T05:48:20.246Z,18.00
2017-07-24T05:50:46.655Z,17.90
2017-07-24T05:53:13.603Z,17.80
2017-07-24T05:55:41.631Z,18.00
2017-07-24T05:58:08.168Z,18.00
2017-07-24T06:00:34.444Z,18.00
2017-07-24T06:03:01.961Z,18.00
2017-07-24T06:05:28.839Z,18.00
2017-07-24T06:07:55.933Z,18.10
2017-07-24T06:10:22.825Z,18.10
2017-07-24T06:12:49.514Z,18.20
2017-07-24T06:15:16.385Z,18.10
2017-07-24T06:17:43.598Z,18.00
2017-07-24T06:20:10.469Z,17.90
2017-07-24T06:22:37.711Z,17.90
2017-07-24T06:25:03.967Z,18.00
2017-07-24T06:27:30.976Z,17.90
2017-07-24T06:29:57.747Z,17.90
2017-07-24T06:32:25.056Z,18.10
2017-07-24T06:34:52.620Z,18.10
2017-07-24T06:37:18.881Z,18.30
2017-07-24T06:39:45.192Z,18.40
2017-07-24T06:42:12.550Z,18.50
2017-07-24T06:44:40.594Z,18.60
2017-07-24T06:47:06.867Z,18.80
2017-07-24T06:49:34.129Z,18.90
2017-07-24T06:52:00.649Z,19.00
2017-07-24T06:54:27.002Z,19.20
2017-07-24T06:56:53.513Z,19.10
2017-07-24T06:59:19.780Z,19.30
2017-07-24T07:01:46.113Z,19.20
2017-07-24T07:04:12.915Z,19.20
2017-07-24T07:06:39.348Z,19.10
2017-07-24T07:09:05.688Z,19.10
2017-07-24T07:11:32.148Z,19.20
2017-07-24T07:13:59.077Z,19.20
2017-07-24T07:16:27.063Z,19.10
2017-07-24T07:18:54.382Z,19.30
2017-07-24T07:21:20.719Z,19.30
2017-07-24T07:23:47.673Z,19.30
2017-07-24T07:26:13.928Z,19.30
2017-07-24T07:28:40.490Z,19.30
2017-07-24T07:31:06.771Z,19.40
2017-07-24T07:33:33.057Z,19.40
2017-07-24T07:35:59.342Z,19.40
2017-07-24T07:38:27.276Z,19.50
2017-07-24T07:40:54.517Z,19.40
2017-07-24T07:43:21.030Z,19.50
2017-07-24T07:45:47.294Z,19.40
2017-07-24T07:48:13.818Z,19.40
2017-07-24T07:50:40.055Z,19.40
2017-07-24T07:53:07.656Z,19.40
2017-07-24T07:55:35.651Z,19.60
2017-07-24T07:58:02.466Z,19.50
2017-07-24T08:00:29.838Z,20.10
2017-07-24T08:02:56.228Z,20.10
2017-07-24T08:05:22.735Z,20.10
2017-07-24T08:07:49.637Z,20.30
2017-07-24T08:10:17.881Z,20.80
2017-07-24T08:12:44.415Z,20.80
2017-07-24T08:15:11.463Z,20.70
2017-07-24T08:17:37.732Z,20.60
2017-07-24T08:20:04.604Z,20.20
2017-07-24T08:22:30.915Z,20.20
2017-07-24T08:24:57.781Z,20.30
2017-07-24T08:27:24.055Z,20.40
2017-07-24T08:29:51.820Z,20.30
2017-07-24T08:32:18.075Z,20.50
2017-07-24T08:34:45.249Z,20.70
2017-07-24T08:37:11.541Z,20.80
2017-07-24T08:39:38.839Z,20.70
2017-07-24T08:42:05.371Z,20.70
2017-07-24T08:44:31.609Z,20.80
2017-07-24T08:46:58.437Z,20.70
2017-07-24T08:49:25.273Z,20.80
2017-07-24T08:51:52.050Z,20.70
2017-07-24T08:54:18.484Z,20.70
2017-07-24T08:56:44.812Z,20.80
2017-07-24T08:59:11.087Z,20.70
2017-07-24T09:01:37.964Z,20.70
2017-07-24T09:04:05.189Z,20.70
2017-07-24T09:06:31.462Z,20.80
2017-07-24T09:08:57.744Z,21.00
2017-07-24T09:11:24.078Z,21.00
2017-07-24T09:13:51.285Z,21.00
2017-07-24T09:16:17.782Z,20.90
2017-07-24T09:18:44.049Z,20.90
2017-07-24T09:21:10.325Z,20.90
2017-07-24T09:23:36.579Z,20.70
2017-07-24T09:26:02.849Z,20.70
2017-07-24T09:28:30.050Z,20.80
2017-07-24T09:30:57.502Z,20.80
2017-07-24T09:33:24.398Z,20.70
2017-07-24T09:35:52.645Z,20.70
2017-07-24T09:38:18.900Z,20.70
2017-07-24T09:40:45.139Z,20.70
2017-07-24T09:43:12.419Z,20.60
2017-07-24T09:45:39.634Z,20.70
2017-07-24T09:48:05.908Z,20.80
2017-07-24T09:50:32.987Z,20.90
2017-07-24T09:52:59.916Z,20.80
2017-07-24T09:55:26.226Z,20.80
2017-07-24T09:57:52.467Z,20.80
2017-07-24T10:00:18.740Z,20.80
2017-07-24T10:02:45.232Z,21.00
2017-07-24T10:05:11.768Z,21.20
2017-07-24T10:07:38.057Z,21.20
2017-07-24T10:10:04.863Z,21.20
2017-07-24T10:12:31.923Z,21.30
2017-07-24T10:14:58.162Z,21.10
2017-07-24T10:17:25.760Z,21.10
2017-07-24T10:19:52.029Z,21.10
2017-07-24T10:22:19.125Z,21.20
2017-07-24T10:24:45.541Z,21.40
2017-07-24T10:27:13.059Z,21.50
2017-07-24T10:29:39.326Z,21.50
2017-07-24T10:32:05.802Z,21.60
2017-07-24T10:34:32.089Z,21.50
2017-07-24T10:36:58.340Z,21.40
2017-07-24T10:39:25.872Z,21.30
2017-07-24T10:41:53.670Z,21.50
2017-07-24T10:44:20.004Z,21.50
2017-07-24T10:46:48.251Z,21.50
2017-07-24T10:49:17.294Z,21.40
2017-07-24T10:51:43.587Z,21.40
2017-07-24T10:54:10.827Z,21.30
2017-07-24T10:56:38.330Z,21.20
2017-07-24T10:59:05.547Z,21.30
2017-07-24T11:01:32.663Z,21.30
2017-07-24T11:04:00.606Z,21.20
2017-07-24T11:06:28.236Z,21.10
2017-07-24T11:08:54.483Z,21.10
2017-07-24T11:11:20.728Z,21.20
2017-07-24T11:13:47.002Z,21.20
2017-07-24T11:16:13.405Z,21.30
2017-07-24T11:18:39.927Z,21.40
2017-07-24T11:21:07.155Z,21.20
2017-07-24T11:23:33.690Z,21.20
2017-07-24T11:26:01.554Z,21.20
2017-07-24T11:28:28.080Z,21.00
2017-07-24T11:30:55.440Z,20.90
2017-07-24T11:33:21.971Z,20.80
2017-07-24T11:35:48.260Z,20.50
2017-07-24T11:38:17.243Z,20.40
2017-07-24T11:40:44.259Z,20.40
2017-07-24T11:43:11.055Z,20.30
2017-07-24T11:45:38.181Z,20.40
2017-07-24T11:48:05.412Z,20.30
2017-07-24T11:50:32.755Z,20.30
2017-07-24T11:52:59.000Z,20.20
2017-07-24T11:55:25.257Z,20.10
2017-07-24T11:57:52.032Z,20.10
2017-07-24T12:00:18.813Z,20.00
2017-07-24T12:02:47.016Z,20.10
2017-07-24T12:05:13.285Z,20.00
2017-07-24T12:07:40.015Z,20.00
2017-07-24T12:10:06.472Z,20.10
2017-07-24T12:12:32.775Z,20.00
2017-07-24T12:14:59.057Z,20.00
2017-07-24T12:17:25.922Z,20.00
2017-07-24T12:19:52.218Z,20.00
2017-07-24T12:22:18.483Z,20.10
2017-07-24T12:24:45.161Z,20.00
2017-07-24T12:27:11.462Z,20.00
2017-07-24T12:29:37.823Z,20.10
2017-07-24T12:32:04.054Z,20.10
2017-07-24T12:34:31.171Z,20.10
2017-07-24T12:36:58.319Z,20.10
2017-07-24T12:39:24.652Z,20.10
2017-07-24T12:41:51.512Z,20.00
2017-07-24T12:44:18.716Z,19.80
2017-07-24T12:46:45.262Z,19.60
2017-07-24T12:49:11.499Z,19.50
2017-07-24T12:51:38.055Z,19.50
2017-07-24T12:54:04.371Z,19.50
2017-07-24T12:56:31.228Z,19.40
2017-07-24T12:58:58.456Z,19.40
2017-07-24T13:01:24.722Z,19.40
2017-07-24T13:03:52.031Z,19.40
2017-07-24T13:06:18.307Z,19.40
2017-07-24T13:08:45.536Z,19.40
2017-07-24T13:11:12.673Z,19.40
2017-07-24T13:13:40.354Z,19.50
2017-07-24T13:16:07.283Z,19.50
2017-07-24T13:18:33.607Z,19.60
2017-07-24T13:21:00.476Z,19.60
2017-07-24T13:23:26.788Z,19.60
2017-07-24T13:25:53.146Z,19.50
2017-07-24T13:28:19.842Z,19.50
2017-07-24T13:30:47.670Z,19.50
2017-07-24T13:33:14.784Z,19.50
2017-07-24T13:35:41.069Z,19.60
2017-07-24T13:38:08.223Z,19.50
2017-07-24T13:40:35.724Z,19.40
2017-07-24T13:43:02.372Z,19.40
2017-07-24T13:45:28.694Z,19.30
2017-07-24T13:47:54.987Z,19.40
2017-07-24T13:50:21.296Z,19.40
2017-07-24T13:52:47.803Z,19.50
2017-07-24T13:55:15.070Z,19.50
2017-07-24T13:57:42.492Z,19.70
2017-07-24T14:00:09.772Z,19.70
2017-07-24T14:02:36.044Z,19.70
2017-07-24T14:05:02.310Z,19.70
2017-07-24T14:07:28.944Z,19.70
2017-07-24T14:09:55.280Z,19.70
2017-07-24T14:12:21.561Z,19.70
2017-07-24T14:14:47.862Z,19.80
2017-07-24T14:17:14.121Z,19.80
2017-07-24T14:19:40.470Z,19.90
2017-07-24T14:22:06.723Z,19.90
2017-07-24T14:24:32.990Z,19.90
2017-07-24T14:26:59.305Z,19.90
2017-07-24T14:29:25.602Z,20.00
2017-07-24T14:31:52.508Z,20.00
2017-07-24T14:34:18.836Z,19.90
2017-07-24T14:36:45.093Z,19.80
2017-07-24T14:41:46.565Z,19.60
2017-07-24T14:44:13.826Z,19.60
2017-07-24T14:46:40.719Z,19.50
2017-07-24T14:49:07.598Z,19.30
2017-07-24T14:51:34.400Z,19.20
2017-07-24T14:54:00.776Z,19.20
2017-07-24T14:56:27.041Z,19.00
2017-07-24T14:58:53.703Z,19.00
2017-07-24T15:01:19.976Z,19.10
2017-07-24T15:03:46.809Z,19.00
2017-07-24T15:06:13.048Z,18.70
2017-07-24T15:08:39.299Z,18.50
2017-07-24T15:11:06.140Z,18.30
2017-07-24T15:13:33.028Z,18.10
2017-07-24T15:15:59.328Z,17.90
2017-07-24T15:18:25.914Z,17.80
2017-07-24T15:20:52.278Z,17.70
2017-07-24T15:23:18.605Z,17.60
2017-07-24T15:25:45.548Z,17.50
2017-07-24T15:28:11.819Z,17.40
2017-07-24T15:30:38.676Z,17.30
2017-07-24T15:33:04.928Z,17.20
2017-07-24T15:35:31.184Z,17.20
2017-07-24T15:37:57.928Z,17.20
2017-07-24T15:40:24.184Z,17.30
2017-07-24T15:42:50.466Z,17.20
2017-07-24T15:45:16.885Z,17.20
2017-07-24T15:47:43.147Z,17.20
2017-07-24T15:50:09.426Z,17.20
2017-07-24T15:52:35.688Z,17.20
2017-07-24T15:55:02.526Z,17.20
2017-07-24T15:57:29.336Z,17.20
2017-07-24T15:59:56.561Z,17.20
2017-07-24T16:02:23.559Z,17.10
2017-07-24T16:04:49.827Z,17.10
2017-07-24T16:07:16.712Z,17.10
2017-07-24T16:09:42.969Z,17.10
2017-07-24T16:12:09.797Z,17.00
2017-07-24T16:14:36.341Z,17.00
2017-07-24T16:17:02.664Z,17.10
2017-07-24T16:19:28.961Z,17.10
2017-07-24T16:24:28.845Z,17.30
2017-07-24T16:26:55.395Z,17.30
2017-07-24T16:29:21.692Z,17.20
2017-07-24T16:31:48.588Z,17.30
2017-07-24T16:34:14.876Z,17.30
2017-07-24T16:36:41.191Z,17.40
2017-07-24T16:39:07.476Z,17.30
2017-07-24T16:41:34.329Z,17.40
2017-07-24T16:44:00.705Z,17.40
2017-07-24T16:46:28.218Z,17.40
2017-07-24T16:48:54.499Z,17.50
2017-07-24T16:51:20.776Z,17.50
2017-07-24T16:53:47.061Z,17.50
2017-07-24T16:56:13.496Z,17.50
2017-07-24T16:58:39.765Z,17.50
2017-07-24T17:01:06.053Z,17.60
2017-07-24T17:03:32.350Z,17.60
2017-07-24T17:05:59.632Z,17.60
2017-07-24T17:08:26.000Z,17.50
2017-07-24T17:10:52.286Z,17.60
2017-07-24T17:13:18.570Z,17.60
2017-07-24T17:15:44.852Z,17.60
2017-07-24T17:18:11.383Z,17.60
2017-07-24T17:20:37.676Z,17.50
2017-07-24T17:23:03.945Z,17.50
2017-07-24T17:25:30.245Z,17.50
2017-07-24T17:27:56.660Z,17.50
2017-07-24T17:30:23.220Z,17.50
2017-07-24T17:32:50.323Z,17.50
2017-07-24T17:35:16.829Z,17.40
2017-07-24T17:37:43.119Z,17.40
2017-07-24T17:40:10.060Z,17.40
2017-07-24T17:42:36.381Z,17.40
2017-07-24T17:45:03.108Z,17.40
2017-07-24T17:47:29.449Z,17.40
2017-07-24T17:49:55.987Z,17.40
2017-07-24T17:52:23.114Z,17.40
2017-07-24T17:54:50.403Z,17.40
2017-07-24T17:57:16.660Z,17.40
2017-07-24T17:59:42.912Z,17.30
2017-07-24T18:02:09.162Z,17.40
2017-07-24T18:04:36.014Z,17.40
2017-07-24T18:07:02.268Z,17.40
2017-07-24T18:09:28.810Z,17.40
2017-07-24T18:11:55.154Z,17.40
2017-07-24T18:14:21.410Z,17.40
2017-07-24T18:16:47.990Z,17.40
2017-07-24T18:19:14.319Z,17.40
2017-07-24T18:21:42.344Z,17.40
2017-07-24T18:24:09.605Z,17.40
2017-07-24T18:26:36.699Z,17.30
2017-07-24T18:29:02.967Z,17.30
2017-07-24T18:31:29.307Z,17.30
2017-07-24T18:33:55.899Z,17.30
2017-07-24T18:36:22.180Z,17.20
2017-07-24T18:38:49.932Z,17.20
2017-07-24T18:41:16.274Z,17.20
2017-07-24T18:43:42.762Z,17.20
2017-07-24T18:46:09.726Z,17.20
2017-07-24T18:48:36.092Z,17.20
2017-07-24T18:51:02.488Z,17.10
2017-07-24T18:53:28.740Z,17.10
2017-07-24T18:55:56.463Z,17.20
2017-07-24T18:58:22.756Z,17.10
2017-07-24T19:00:50.079Z,17.10
2017-07-24T19:03:16.586Z,17.10
2017-07-24T19:05:42.992Z,17.00
2017-07-24T19:08:09.402Z,17.00
2017-07-24T19:10:35.871Z,16.90
2017-07-24T19:13:03.253Z,16.70
2017-07-24T19:15:29.612Z,16.70
2017-07-24T19:17:56.041Z,16.50
2017-07-24T19:20:22.965Z,16.50
2017-07-24T19:22:49.586Z,16.50
2017-07-24T19:25:16.102Z,16.60
2017-07-24T19:27:42.391Z,16.50
2017-07-24T19:30:09.636Z,16.40
2017-07-24T19:32:36.851Z,16.40
2017-07-24T19:35:03.149Z,16.40
2017-07-24T19:37:29.504Z,16.30
2017-07-24T19:39:55.774Z,16.10
2017-07-24T19:42:23.010Z,16.00
2017-07-24T19:44:49.291Z,16.00
2017-07-24T19:47:15.782Z,16.00
2017-07-24T19:49:44.186Z,16.00
2017-07-24T19:52:11.050Z,16.00
2017-07-24T19:54:37.735Z,16.00
2017-07-24T19:57:06.093Z,16.10
2017-07-24T19:59:32.889Z,16.00
2017-07-24T20:01:59.458Z,15.90
2017-07-24T20:04:26.549Z,15.90
2017-07-24T20:06:54.590Z,16.00
2017-07-24T20:09:20.857Z,15.90
2017-07-24T20:11:47.865Z,16.00
2017-07-24T20:14:15.068Z,15.90
2017-07-24T20:16:41.761Z,16.00
2017-07-24T20:19:09.212Z,16.00
2017-07-24T20:21:35.498Z,15.90
2017-07-24T20:24:02.389Z,16.00
2017-07-24T20:26:28.638Z,15.90
2017-07-24T20:28:54.926Z,15.90
2017-07-24T20:31:21.479Z,15.80
2017-07-24T20:33:48.426Z,15.80
2017-07-24T20:36:15.808Z,15.90
2017-07-24T20:38:44.142Z,15.90
2017-07-24T20:41:10.423Z,15.90
2017-07-24T20:43:37.975Z,15.80
2017-07-24T20:46:04.947Z,15.80
2017-07-24T20:48:31.195Z,15.80
2017-07-24T20:50:58.454Z,15.90
2017-07-24T20:53:24.921Z,15.90
2017-07-24T20:55:52.074Z,15.90
2017-07-24T20:58:19.931Z,15.80
2017-07-24T21:00:46.183Z,15.90
2017-07-24T21:03:13.767Z,15.80
2017-07-24T21:05:40.028Z,15.80
2017-07-24T21:08:06.978Z,15.80
2017-07-24T21:10:33.424Z,15.80
2017-07-24T21:12:59.731Z,15.80
2017-07-24T21:15:26.357Z,15.80
2017-07-24T21:17:52.978Z,15.80
2017-07-24T21:20:20.268Z,15.80
2017-07-24T21:22:46.788Z,15.80
2017-07-24T21:25:13.321Z,15.70
2017-07-24T21:27:40.636Z,15.80
2017-07-24T21:30:07.897Z,15.70
2017-07-24T21:32:34.477Z,15.70
2017-07-24T21:35:02.128Z,15.70
2017-07-24T21:37:28.430Z,15.70
2017-07-24T21:39:54.749Z,15.70
2017-07-24T21:42:21.694Z,15.70
2017-07-24T21:44:48.209Z,15.60
2017-07-24T21:47:15.029Z,15.60
2017-07-24T21:49:41.374Z,15.60
2017-07-24T21:52:08.995Z,15.60
2017-07-24T21:54:36.331Z,15.60
2017-07-24T21:57:02.591Z,15.60
2017-07-24T21:59:28.851Z,15.60
2017-07-24T22:01:55.102Z,15.60
2017-07-24T22:04:21.851Z,15.60
2017-07-24T22:06:48.719Z,15.60
2017-07-24T22:09:15.003Z,15.60
2017-07-24T22:11:42.430Z,15.60
2017-07-24T22:14:10.417Z,15.70
2017-07-24T22:16:37.187Z,15.60
2017-07-24T22:19:03.985Z,15.60
2017-07-24T22:21:30.612Z,15.60
2017-07-24T22:23:57.556Z,15.60
2017-07-24T22:26:23.804Z,15.50
2017-07-24T22:28:50.363Z,15.60
2017-07-24T22:31:17.175Z,15.70
2017-07-24T22:33:43.708Z,15.80
2017-07-24T22:36:10.618Z,15.80
2017-07-24T22:38:38.498Z,15.80
2017-07-24T22:41:04.783Z,15.70
2017-07-24T22:43:31.030Z,15.60
2017-07-24T22:45:57.291Z,15.60
2017-07-24T22:48:24.233Z,15.60
2017-07-24T22:50:51.521Z,15.50
2017-07-24T22:53:18.552Z,15.50
2017-07-24T22:55:45.128Z,15.50
2017-07-24T22:58:11.387Z,15.50
2017-07-24T23:00:38.179Z,15.40
2017-07-24T23:03:04.481Z,15.40
2017-07-24T23:05:31.091Z,15.40
2017-07-24T23:07:57.358Z,15.30
2017-07-24T23:10:23.798Z,15.30
2017-07-24T23:12:50.274Z,15.40
2017-07-24T23:15:16.551Z,15.30
2017-07-24T23:17:43.543Z,15.30
2017-07-24T23:20:09.819Z,15.30
2017-07-24T23:22:36.075Z,15.30
2017-07-24T23:25:02.410Z,15.30
2017-07-24T23:27:29.314Z,15.20
2017-07-24T23:29:56.238Z,15.20
2017-07-24T23:32:23.575Z,15.20
2017-07-24T23:34:50.349Z,15.20
2017-07-24T23:37:17.934Z,15.20
2017-07-24T23:39:44.950Z,15.20
2017-07-24T23:42:12.242Z,15.20
2017-07-24T23:44:38.489Z,15.20
2017-07-24T23:47:04.765Z,15.30
2017-07-24T23:49:31.163Z,15.20
2017-07-24T23:51:58.111Z,15.20
2017-07-24T23:54:25.381Z,15.20
2017-07-24T23:56:51.660Z,15.20
2017-07-24T23:59:18.896Z,15.20
